Latest Coastal Weather Observations for Avalon

IDV60701

Issued at 9:05 pm EST Thursday 24 April 2014 (issued every 10 minutes, with the page automatically refreshed every 10 minutes)

About coastal observations | Map of coastal stations | Coastal observations for VIC | Marine services | Other Formats
Station Details ID: 087113 Name: AVALON AIRPORT Lat: -38.03 Lon: 144.48 Height: 10.6 m
Data from the previous 72 hours. | See also: Recent months at Avalon
Date/Time
EST
Temp

°C
Wind Pressure Rain
since 9am
mm
Weather Cloud Vis
km
Sea
Height
m
Swell
Dir
 
Speed
knots
Gust
knots
hPa Trend Height
m
Period
s
Dir
24/09:00pm 11.5 SW 4 5 1021.5 - 0.0 - Cloudy 10 - - - -
24/08:30pm 11.4 SSW 5 6 1021.2 - 0.0 - Cloudy 10 - - - -
24/08:00pm 11.1 SSW 6 7 1020.8 - 0.0 - Cloudy 10 - - - -
24/07:30pm 12.0 S 7 8 1020.6 - 0.0 - Cloudy 10 - - - -
24/07:00pm 12.6 S 7 10 1020.3 - 0.0 - Partly cloudy 10 - - - -
24/06:30pm 12.7 S 9 12 1019.9 - 0.0 - Partly cloudy 10 - - - -
24/06:00pm 12.7 S 11 15 1019.4 - 0.0 - Partly cloudy 10 - - - -
24/05:30pm 13.5 S 11 14 1019.0 - 0.0 - Partly cloudy 10 - - - -
24/05:00pm 13.9 S 11 15 1018.6 - 0.0 - Partly cloudy 10 - - - -
24/04:30pm 14.3 S 11 13 1018.3 - 0.0 - Partly cloudy 10 - - - -
24/04:00pm 14.2 S 13 17 1018.1 - 0.0 - - 10 - - - -
24/03:30pm 15.9 S 13 16 1017.8 - 0.0 - Partly cloudy 10 - - - -
24/03:00pm 16.2 SW 14 18 1017.5 - 0.0 - Mostly cloudy 10 - - - -
24/02:30pm 17.4 SW 11 16 1017.3 - 0.0 - Partly cloudy 10 - - - -
24/02:00pm 17.5 WSW 13 18 1017.2 - 0.0 - Partly cloudy 10 - - - -
24/01:30pm 17.0 WSW 12 20 1017.2 - 0.0 - Partly cloudy 10 - - - -
24/01:00pm 16.3 WSW 14 20 1017.3 - 0.0 - Partly cloudy 10 - - - -
24/12:30pm 16.2 WSW 14 20 1017.5 - 0.0 - Partly cloudy 10 - - - -
24/12:00pm 16.5 SW 15 20 1017.6 - 0.0 - Partly cloudy 10 - - - -
24/11:30am 15.6 W 16 21 1017.3 - 0.0 - - 10 - - - -
24/11:05am 15.8 W 20 25 1016.9 - 0.0 - Partly cloudy 10 - - - -
24/11:00am 15.6 WSW 17 22 1016.9 - 0.0 - Partly cloudy 10 - - - -
24/10:30am 14.5 WSW 17 22 1016.6 - 0.0 - Partly cloudy 10 - - - -
24/10:00am 15.2 WSW 15 20 1016.0 - 0.0 - Partly cloudy 10 - - - -
24/09:30am 14.9 W 14 21 1015.7 - 0.0 - Partly cloudy 10 - - - -
24/09:00am 13.9 W 13 17 1015.2 - 0.8 - Partly cloudy 10 - - - -
24/08:30am 13.3 WNW 13 18 1014.6 - 0.8 - Cloudy 10 - - - -
24/08:00am 13.1 W 15 18 1013.6 - 0.6 - Partly cloudy 10 - - - -
24/07:30am 13.2 WNW 17 22 1012.7 - 0.6 - Partly cloudy 10 - - - -
24/07:00am 14.6 WNW 16 20 1011.7 - 0.0 - Partly cloudy 10 - - - -
24/06:30am 14.6 NNW 11 14 1011.1 - 0.0 - Cloudy 10 - - - -
24/06:00am 14.2 NNW 11 14 1010.7 - 0.0 - Cloudy 10 - - - -
24/05:30am 14.6 NW 12 16 1010.3 - 0.0 - Partly cloudy 10 - - - -
24/05:00am 14.3 NW 12 15 1010.2 - 0.0 - Partly cloudy 10 - - - -
24/04:30am 14.8 NW 14 18 1009.6 - 0.0 - Partly cloudy 10 - - - -
24/04:00am 14.5 NNW 14 19 1009.2 - 0.0 - - 10 - - - -
24/03:30am 14.5 NNW 13 16 1009.3 - 0.0 - - 10 - - - -
24/03:00am 12.6 N 7 10 1010.1 - 0.0 - Partly cloudy 10 - - - -
24/02:30am 12.8 N 7 9 1010.3 - 0.0 - Partly cloudy 10 - - - -
24/02:00am 12.6 N 9 11 1010.6 - 0.0 - Cloudy 10 - - - -
24/01:30am 13.2 N 10 14 1010.7 - 0.0 - Cloudy 10 - - - -
24/01:00am 13.0 N 11 13 1010.8 - 0.0 - Cloudy 10 - - - -
24/12:30am 12.6 N 11 13 1011.2 - 0.0 - Cloudy 10 - - - -
24/12:00am 12.6 N 10 12 1011.5 - 0.0 - Mostly cloudy 10 - - - -
 
Date/Time
EST
Temp

°C
Wind Pressure Rain
since 9am
mm
Weather Cloud Vis
km
Sea
Height
m
Swell
Dir
 
Speed
knots
Gust
knots
hPa Trend Height
m
Period
s
Dir
23/11:30pm 12.2 N 10 11 1011.9 - 0.0 - Cloudy 10 - - - -
23/11:00pm 12.6 N 10 12 1012.2 - 0.0 - Cloudy 10 - - - -
23/10:30pm 12.4 N 8 10 1012.5 - 0.0 - Cloudy 10 - - - -
23/10:00pm 11.7 N 7 9 1012.6 - 0.0 - Partly cloudy 10 - - - -
23/09:30pm 13.0 N 7 8 1012.8 - 0.0 - Cloudy 10 - - - -
23/09:00pm 12.6 N 7 8 1012.9 - 0.0 - Cloudy 10 - - - -
23/08:30pm 13.1 N 6 7 1013.1 - 0.0 - Cloudy 10 - - - -
23/08:00pm 13.4 N 7 8 1013.2 - 0.0 - Cloudy 10 - - - -
23/07:30pm 12.8 N 5 7 1013.3 - 0.0 - Cloudy 10 - - - -
23/07:00pm 14.2 NNE 5 7 1013.2 - 0.0 - Cloudy 10 - - - -
23/06:30pm 13.9 NE 5 6 1013.0 - 0.0 - Cloudy 10 - - - -
23/06:00pm 14.3 ENE 5 7 1013.0 - 0.0 - Mostly cloudy 10 - - - -
23/05:30pm 15.2 NE 6 7 1013.0 - 0.0 - Partly cloudy 10 - - - -
23/05:00pm 17.0 N 5 7 1013.1 - 0.0 - - 10 - - - -
23/04:30pm 18.2 W 8 10 1013.2 - 0.0 - Partly cloudy 10 - - - -
23/04:00pm 18.3 W 7 9 1013.4 - 0.0 - Partly cloudy 10 - - - -
23/03:30pm 18.4 W 7 10 1013.4 - 0.0 - Partly cloudy 10 - - - -
23/03:00pm 18.4 WNW 5 9 1013.4 - 0.0 - Partly cloudy 10 - - - -
23/02:30pm 18.6 NW 4 6 1013.6 - 0.0 - Partly cloudy 10 - - - -
23/02:00pm 17.9 W 4 8 1013.8 - 0.0 - Partly cloudy 10 - - - -
23/01:30pm 17.8 W 5 7 1014.2 - 0.0 - Partly cloudy 10 - - - -
23/01:00pm 17.3 W 7 12 1015.0 - 0.0 - Partly cloudy 10 - - - -
23/12:30pm 17.8 W 7 11 1015.3 - 0.0 - - 10 - - - -
23/12:00pm 17.0 W 8 11 1016.0 - 0.0 - - 10 - - - -
23/11:30am 16.8 NW 6 10 1016.3 - 0.0 - - 10 - - - -
23/11:00am 16.0 WNW 5 7 1016.5 - 0.0 - Partly cloudy 10 - - - -
23/10:30am 14.4 WNW 7 9 1016.8 - 0.0 - Partly cloudy 10 - - - -
23/10:00am 12.9 WNW 6 8 1017.1 - 0.0 - Cloudy 10 - - - -
23/09:30am 11.4 W 10 12 1017.4 - 0.0 - Cloudy 10 - - - -
23/09:00am 10.8 W 8 10 1017.6 - 0.2 - Cloudy 10 - - - -
23/08:30am 9.4 W 7 8 1017.3 - 0.2 - Cloudy 10 - - - -
23/08:00am 8.1 CALM 0 1 1016.9 - 0.2 - Partly cloudy 10 - - - -
23/07:30am 7.2 CALM 0 3 1016.9 - 0.2 - - 10 - - - -
23/07:00am 7.4 W 6 7 1016.6 - 0.2 - Partly cloudy 10 - - - -
23/06:30am 8.1 W 6 6 1016.5 - 0.2 - Partly cloudy 10 - - - -
23/06:00am 8.4 WNW 5 6 1016.6 - 0.2 - Cloudy 10 - - - -
23/05:30am 8.6 WNW 6 6 1016.7 - 0.2 - Partly cloudy 10 - - - -
23/05:00am 8.6 WNW 4 5 1016.3 - 0.2 - - 10 - - - -
23/04:30am 9.0 WNW 5 6 1016.2 - 0.2 - Partly cloudy 10 - - - -
23/04:00am 9.4 WNW 7 7 1016.2 - 0.2 - Cloudy 10 - - - -
23/03:30am 10.3 NW 4 5 1016.2 - 0.2 - Cloudy 10 - - - -
23/03:00am 10.0 WNW 4 5 1016.5 - 0.2 - Mostly cloudy 10 - - - -
23/02:30am 10.2 WNW 5 6 1016.8 - 0.2 - Partly cloudy 10 - - - -
23/02:00am 11.3 WNW 5 5 1016.9 - 0.2 - Partly cloudy 10 - - - -
23/01:30am 12.4 WNW 4 5 1017.0 - 0.2 - Cloudy 10 - - - -
23/01:00am 12.6 NW 4 5 1017.3 - 0.2 - Cloudy 10 - - - -
23/12:30am 12.7 NW 4 6 1017.5 - 0.2 - Cloudy 10 - - - -
23/12:00am 12.7 WNW 5 6 1017.6 - 0.2 - Cloudy 10 - - - -
 
Date/Time
EST
Temp

°C
Wind Pressure Rain
since 9am
mm
Weather Cloud Vis
km
Sea
Height
m
Swell
Dir
 
Speed
knots
Gust
knots
hPa Trend Height
m
Period
s
Dir
22/11:30pm 12.8 NW 4 5 1017.7 - 0.2 - Cloudy 10 - - - -
22/11:00pm 13.0 WNW 1 3 1017.8 - 0.2 - Partly cloudy 10 - - - -
22/10:30pm 13.3 NW 4 4 1018.2 - 0.2 - Cloudy 10 - - - -
22/10:00pm 13.7 WNW 5 6 1018.2 - 0.2 - Cloudy 10 - - - -
22/09:30pm 13.7 CALM 0 0 1017.9 - 0.2 - Partly cloudy 10 - - - -
22/09:00pm 13.6 W 2 4 1017.8 - 0.2 - Cloudy 10 - - - -
22/08:30pm 13.5 SSW 6 6 1017.5 - 0.2 - Partly cloudy 10 - - - -
22/08:00pm 13.4 SSW 5 6 1017.4 - 0.2 - Cloudy 10 - - - -
22/07:30pm 14.7 SSW 7 9 1017.2 - 0.2 - Cloudy 10 - - - -
22/07:00pm 15.1 S 8 10 1016.9 - 0.2 - Cloudy 10 - - - -
22/06:30pm 15.1 S 9 11 1016.5 - 0.2 - Cloudy 10 - - - -
22/06:00pm 15.3 S 8 10 1016.2 - 0.2 - Cloudy 10 - - - -
22/05:30pm 15.2 S 7 11 1015.9 - 0.2 - Cloudy 10 - - - -
22/05:00pm 15.5 SSE 8 12 1015.4 - 0.2 - Partly cloudy 10 - - - -
22/04:30pm 15.7 SSE 6 8 1015.2 - 0.2 - Partly cloudy 10 - - - -
22/04:00pm 16.1 SSE 7 9 1014.9 - 0.2 - Partly cloudy 10 - - - -
22/03:48pm 16.2 SSE 8 11 1014.8 - 0.2 - Partly cloudy 10 - - - -
22/03:30pm 15.8 S 9 12 1014.8 - 0.2 - Cloudy 10 - - - -
22/03:11pm 16.0 S 11 11 1014.7 - 0.2 - Partly cloudy 10 - - - -
22/03:00pm 16.9 W 6 8 1014.7 - 0.2 - Cloudy 10 - - - -
22/02:30pm 17.1 WNW 8 11 1014.3 - 0.2 - Partly cloudy 10 - - - -
22/02:00pm 16.5 WNW 12 15 1014.2 - 0.2 - Partly cloudy 10 - - - -
22/01:30pm 16.3 WNW 10 14 1014.1 - 0.2 - Cloudy 10 - - - -
22/01:00pm 15.8 W 7 9 1014.4 - 0.2 - Partly cloudy 10 - - - -
22/12:30pm 16.0 WSW 7 9 1014.8 - 0.2 - Partly cloudy 10 - - - -
22/12:00pm 15.5 N 7 10 1014.9 - 0.0 - Cloudy 10 - - - -
22/11:30am 15.4 N 8 9 1014.9 - 0.0 - Partly cloudy 10 - - - -
22/11:00am 15.3 N 10 13 1014.8 - 0.0 - Partly cloudy 10 - - - -
22/10:30am 15.0 NNE 9 11 1014.7 - 0.0 - Partly cloudy 10 - - - -
22/10:00am 14.5 NNE 8 11 1014.6 - 0.0 - Partly cloudy 10 - - - -
22/09:30am 13.7 NE 9 11 1014.6 - 0.0 - Partly cloudy 10 - - - -
22/09:00am 13.3 NE 9 11 1014.7 - 10.0 - Cloudy 10 - - - -
22/08:30am 13.1 NNE 11 16 1014.5 - 10.0 - Partly cloudy 10 - - - -
22/08:00am 12.9 NNE 17 23 1014.0 - 10.0 - Cloudy 10 - - - -
22/07:40am 12.1 NNE 14 20 1013.7 - 10.0 - Partly cloudy 10 - - - -
22/07:30am 12.2 NNE 16 23 1013.0 - 9.8 - Partly cloudy 6 - - - -
22/07:18am 12.6 NNE 10 14 1014.5 - 8.4 - Partly cloudy 6 - - - -
22/07:00am 12.7 N 7 8 1015.1 - 6.0 - Partly cloudy 8 - - - -
22/06:30am 12.9 W 6 15 1015.1 - 4.0 - Partly cloudy 10 - - - -
22/06:00am 13.1 N 15 18 1014.2 - 2.6 - Cloudy 10 - - - -
22/05:30am 14.3 N 18 23 1013.8 - 0.4 - Partly cloudy 10 - - - -
22/05:00am 14.7 N 11 15 1013.5 - 0.0 - Cloudy 10 - - - -
22/04:30am 16.0 NNW 15 20 1013.8 - 0.0 - Partly cloudy 10 - - - -
22/04:00am 16.6 WNW 7 13 1013.0 - 0.0 - Partly cloudy 10 - - - -
22/03:30am 16.3 N 18 26 1011.9 - 0.0 - Cloudy 10 - - - -
22/03:29am 16.2 N 18 26 1011.9 - 0.0 - Partly cloudy 10 - - - -
22/03:00am 15.5 NW 9 14 1012.8 - 0.0 - Cloudy 10 - - - -
22/02:30am 17.0 W 9 20 1013.6 - 0.0 - Partly cloudy 10 - - - -
22/02:00am 16.6 N 13 20 1012.8 - 0.0 - Partly cloudy 10 - - - -
22/01:30am 17.1 N 17 28 1012.2 - 0.0 - Partly cloudy 10 - - - -
22/01:26am 17.0 N 15 27 1012.3 - 0.0 - Partly cloudy 10 - - - -
22/01:04am 16.6 NW 18 31 1013.0 - 0.0 - Partly cloudy 10 - - - -
22/01:02am 16.5 N 21 31 1012.2 - 0.0 - Partly cloudy 10 - - - -
22/01:00am 16.5 N 23 31 1011.6 - 0.0 - Partly cloudy 10 - - - -
22/12:30am 16.7 N 21 29 1011.7 - 0.0 - Cloudy 10 - - - -
22/12:00am 17.1 N 23 31 1012.2 - 0.0 - Mostly cloudy 10 - - - -
 
Date/Time
EST
Temp

°C
Wind Pressure Rain
since 9am
mm
Weather Cloud Vis
km
Sea
Height
m
Swell
Dir
 
Speed
knots
Gust
knots
hPa Trend Height
m
Period
s
Dir
21/11:30pm 16.9 N 23 31 1012.3 - 0.0 - Partly cloudy 10 - - - -
21/11:00pm 17.1 N 23 34 1012.5 - 0.0 - - 10 - - - -
21/10:50pm 17.3 N 23 34 1012.5 - 0.0 - Partly cloudy 10 - - - -
21/10:30pm 17.1 N 21 29 1012.7 - 0.0 - Partly cloudy 10 - - - -
21/10:00pm 17.7 N 23 33 1012.7 - 0.0 - Cloudy 10 - - - -
21/09:30pm 18.0 N 26 37 1012.5 - 0.0 - Cloudy 10 - - - -

Other Formats:

Comma delimited format used in spreadsheet applications
http://www.bom.gov.au/fwo/IDV60701/IDV60701.94854.axf

JavaScript Object Notation format (JSON) in row-major order
http://www.bom.gov.au/fwo/IDV60701/IDV60701.94854.json